Time;durP1;ratioP1;P1;durP2;ratioP2;P2;SDS_P1;SDS_P2;PMS_P1;PMS_P2;Temp;Humidity;BMP_temperature;BMP_pressure;BME280_temperature;BME280_humidity;BME280_pressure;Samples;Min_cycle;Max_cycle;Signal;HPM_P1;HPM_P2
2021/12/08 00:00:28;;;;;;;4.65;2.20;;;1.60;86.40;;;;;;5014928;28;20037;-76
2021/12/08 00:02:55;;;;;;;6.45;2.42;;;1.50;88.00;;;;;;5017337;28;20080;-78
2021/12/08 00:05:22;;;;;;;4.18;2.00;;;1.50;89.70;;;;;;5018404;28;20030;-77
2021/12/08 00:07:49;;;;;;;4.15;2.17;;;1.40;90.70;;;;;;5013012;28;20030;-76
2021/12/08 00:13:03;;;;;;;5.15;1.77;;;1.30;92.20;;;;;;5013680;28;20304;-76
2021/12/08 00:15:39;;;;;;;4.20;1.95;;;1.30;91.90;;;;;;5016169;28;20120;-76
2021/12/08 00:18:09;;;;;;;6.55;1.80;;;1.30;93.60;;;;;;5018530;28;20072;-76
2021/12/08 00:20:37;;;;;;;6.10;2.13;;;1.20;94.80;;;;;;5017843;28;20029;-76
2021/12/08 00:23:05;;;;;;;3.92;1.67;;;1.10;94.40;;;;;;5013184;28;20025;-76
2021/12/08 00:25:35;;;;;;;3.92;1.92;;;1.10;94.70;;;;;;5011908;28;20072;-76
2021/12/08 00:28:03;;;;;;;3.28;1.80;;;1.10;96.20;;;;;;5011215;28;20489;-77
2021/12/08 00:30:29;;;;;;;3.60;1.90;;;1.10;96.20;;;;;;5007326;28;20045;-77
2021/12/08 00:32:57;;;;;;;3.67;2.05;;;1.10;96.00;;;;;;5012446;28;20046;-76
2021/12/08 00:35:24;;;;;;;4.45;1.90;;;1.10;97.60;;;;;;5012860;28;20637;-77
2021/12/08 00:37:50;;;;;;;7.38;2.17;;;1.00;97.60;;;;;;5015110;28;20030;-76
2021/12/08 00:40:18;;;;;;;3.30;1.60;;;0.90;98.00;;;;;;5015122;28;20046;-76
2021/12/08 00:42:47;;;;;;;7.20;1.70;;;0.90;97.70;;;;;;5020479;28;20036;-77
2021/12/08 00:45:15;;;;;;;4.03;1.88;;;1.00;97.10;;;;;;5026051;28;20033;-77
2021/12/08 00:47:41;;;;;;;2.60;1.65;;;1.00;97.80;;;;;;5017788;28;20029;-77
2021/12/08 00:50:09;;;;;;;4.28;1.98;;;1.00;97.50;;;;;;5015621;28;20095;-77
2021/12/08 00:52:36;;;;;;;5.35;2.05;;;0.90;98.00;;;;;;5013696;28;20060;-77
2021/12/08 00:55:07;;;;;;;3.90;1.75;;;1.00;98.00;;;;;;4999783;28;20369;-77
2021/12/08 00:57:37;;;;;;;2.63;1.58;;;1.20;98.00;;;;;;5006109;28;20026;-77
2021/12/08 01:00:16;;;;;;;3.47;1.60;;;1.20;98.00;;;;;;5006963;28;20029;-78
2021/12/08 01:02:43;;;;;;;4.10;1.70;;;1.20;98.00;;;;;;5016367;28;20334;-77
2021/12/08 01:05:10;;;;;;;5.07;1.90;;;1.30;98.00;;;;;;5017680;28;20056;-77
2021/12/08 01:07:37;;;;;;;4.90;1.75;;;1.20;98.00;;;;;;5014070;28;20022;-78
2021/12/08 01:10:06;;;;;;;3.50;1.95;;;1.20;98.00;;;;;;5017017;28;20105;-77
2021/12/08 01:12:32;;;;;;;6.32;1.73;;;1.20;98.00;;;;;;5016249;28;20180;-78
2021/12/08 01:14:58;;;;;;;4.30;2.00;;;1.20;98.00;;;;;;5016998;28;20459;-78
2021/12/08 01:17:23;;;;;;;4.72;2.08;;;1.30;98.00;;;;;;5015746;28;20327;-78
2021/12/08 01:19:49;;;;;;;4.32;1.73;;;1.30;98.00;;;;;;5008936;28;20157;-78
2021/12/08 01:22:15;;;;;;;3.83;1.90;;;1.40;98.00;;;;;;5008582;28;20144;-78
2021/12/08 01:24:41;;;;;;;4.18;1.90;;;1.40;98.00;;;;;;5014943;28;20034;-78
2021/12/08 01:27:07;;;;;;;6.18;2.15;;;1.50;98.00;;;;;;5016727;28;20065;-78
2021/12/08 01:29:32;;;;;;;5.18;2.40;;;1.60;98.00;;;;;;5011586;28;20057;-78
2021/12/08 01:31:58;;;;;;;6.32;1.90;;;1.70;98.00;;;;;;5008352;28;20019;-79
2021/12/08 01:34:23;;;;;;;4.07;1.48;;;1.90;98.00;;;;;;5013962;28;20054;-80
2021/12/08 01:36:49;;;;;;;3.28;1.70;;;2.00;98.00;;;;;;5014250;28;20030;-79
2021/12/08 01:39:15;;;;;;;4.68;1.90;;;2.30;98.00;;;;;;5016087;28;20041;-80
2021/12/08 01:41:41;;;;;;;5.90;2.08;;;2.30;98.00;;;;;;5015541;28;20048;-80
2021/12/08 01:47:05;;;;;;;3.22;1.50;;;2.40;98.00;;;;;;5014979;28;20038;-80
2021/12/08 01:49:31;;;;;;;3.20;1.63;;;2.70;98.00;;;;;;5007003;28;20105;-81
2021/12/08 01:51:57;;;;;;;3.92;1.70;;;3.00;98.00;;;;;;5006409;28;20367;-80
2021/12/08 01:54:23;;;;;;;2.88;1.52;;;3.30;98.00;;;;;;5016079;28;20450;-81
2021/12/08 01:56:49;;;;;;;3.08;1.70;;;3.40;98.00;;;;;;5010981;28;20121;-81
2021/12/08 01:59:15;;;;;;;4.75;1.67;;;3.50;98.00;;;;;;5008355;28;20387;-82
2021/12/08 02:01:43;;;;;;;3.17;1.70;;;3.40;98.00;;;;;;5010800;28;20036;-81
2021/12/08 02:04:10;;;;;;;3.28;1.50;;;3.30;98.00;;;;;;5015302;28;20073;-81
2021/12/08 02:06:41;;;;;;;3.30;1.67;;;3.30;98.00;;;;;;5008169;28;20026;-82
2021/12/08 02:09:10;;;;;;;2.85;1.58;;;3.20;98.00;;;;;;5014602;28;20024;-81
2021/12/08 02:11:40;;;;;;;4.65;1.90;;;3.20;98.00;;;;;;5016527;28;20426;-81
2021/12/08 02:14:07;;;;;;;3.97;1.60;;;3.30;98.00;;;;;;5015211;28;20363;-82
2021/12/08 02:16:33;;;;;;;3.17;1.52;;;3.40;98.00;;;;;;5005277;28;20322;-81
2021/12/08 02:18:59;;;;;;;3.03;1.60;;;3.50;98.00;;;;;;5015131;28;20032;-82
2021/12/08 02:21:39;;;;;;;3.75;1.63;;;3.40;98.00;;;;;;5015818;28;20025;-82
2021/12/08 02:24:08;;;;;;;3.30;1.52;;;3.50;98.00;;;;;;5012577;28;20026;-82
2021/12/08 02:26:35;;;;;;;3.63;1.65;;;3.50;98.00;;;;;;5011428;28;20054;-82
2021/12/08 02:29:07;;;;;;;5.65;1.83;;;3.60;98.00;;;;;;5015610;28;20041;-82
2021/12/08 02:32:01;;;;;;;2.97;1.63;;;3.70;98.00;;;;;;5006617;28;20031;-82
2021/12/08 02:48:03;;;;;;;3.53;1.50;;;3.70;98.00;;;;;;5015834;28;20041;-82
2021/12/08 02:50:44;;;;;;;3.15;1.70;;;3.70;98.00;;;;;;5012536;28;20018;-81
2021/12/08 02:53:13;;;;;;;3.08;1.30;;;3.70;98.00;;;;;;5009553;28;20080;-81
2021/12/08 02:55:40;;;;;;;2.50;1.40;;;3.70;98.00;;;;;;5003675;28;20065;-81
2021/12/08 02:58:06;;;;;;;4.05;1.65;;;3.80;98.00;;;;;;5011009;28;20096;-81
2021/12/08 03:00:37;;;;;;;2.67;1.50;;;3.70;98.00;;;;;;5011521;28;20030;-81
2021/12/08 03:03:04;;;;;;;3.13;1.30;;;3.70;98.00;;;;;;5015578;28;20116;-81
2021/12/08 03:05:30;;;;;;;2.42;1.50;;;3.70;98.00;;;;;;5008178;28;20117;-81
2021/12/08 03:07:57;;;;;;;2.22;1.30;;;3.80;98.00;;;;;;5005055;28;20026;-80
2021/12/08 03:10:26;;;;;;;2.72;1.40;;;3.70;98.00;;;;;;5011365;28;20026;-81
2021/12/08 03:12:52;;;;;;;3.58;1.50;;;3.60;98.00;;;;;;5014275;28;20308;-83
2021/12/08 03:15:18;;;;;;;4.43;1.75;;;3.60;98.00;;;;;;5003703;28;20084;-82
2021/12/08 03:17:44;;;;;;;3.47;1.80;;;3.50;98.00;;;;;;5011067;28;20308;-82
2021/12/08 03:20:14;;;;;;;3.42;1.55;;;3.50;98.00;;;;;;5012068;28;20029;-84
2021/12/08 03:22:45;;;;;;;3.83;1.65;;;3.40;97.80;;;;;;5004997;28;20023;-83
2021/12/08 03:25:14;;;;;;;2.47;1.50;;;3.40;97.30;;;;;;5009554;28;20038;-84
2021/12/08 03:27:48;;;;;;;3.05;1.50;;;3.40;97.40;;;;;;5007142;28;20068;-82
2021/12/08 03:30:25;;;;;;;3.53;1.70;;;3.40;97.80;;;;;;5007972;28;20027;-83
2021/12/08 03:32:56;;;;;;;2.33;1.30;;;3.40;97.90;;;;;;5008999;28;20033;-82
2021/12/08 03:35:22;;;;;;;3.50;1.63;;;3.40;97.70;;;;;;5011602;28;20037;-83
2021/12/08 03:37:48;;;;;;;2.70;1.40;;;3.40;98.00;;;;;;5010770;28;20132;-82
2021/12/08 03:40:16;;;;;;;3.00;1.40;;;3.40;97.80;;;;;;5011795;28;20109;-83
2021/12/08 03:42:47;;;;;;;2.50;1.45;;;3.40;98.00;;;;;;5008395;28;20030;-82
2021/12/08 03:45:25;;;;;;;2.20;1.40;;;3.40;98.00;;;;;;5013921;28;20026;-82
2021/12/08 03:48:01;;;;;;;2.28;1.30;;;3.40;98.00;;;;;;5009541;28;20053;-82
2021/12/08 03:50:28;;;;;;;3.00;1.50;;;3.30;98.00;;;;;;4997979;28;20308;-82
2021/12/08 03:52:54;;;;;;;2.88;1.70;;;3.30;97.90;;;;;;5001385;28;20026;-83
2021/12/08 03:55:20;;;;;;;2.55;1.52;;;3.30;97.90;;;;;;5012453;28;20029;-82
2021/12/08 03:57:49;;;;;;;2.83;1.50;;;3.30;98.00;;;;;;5013247;28;20030;-83
2021/12/08 04:00:18;;;;;;;2.95;1.60;;;3.20;98.00;;;;;;5000136;28;20038;-82
2021/12/08 04:02:44;;;;;;;3.42;1.70;;;3.20;98.00;;;;;;5012672;28;20022;-82
2021/12/08 04:05:18;;;;;;;2.78;1.60;;;3.20;98.00;;;;;;5005340;28;20025;-82
2021/12/08 04:07:45;;;;;;;3.40;1.70;;;3.10;98.00;;;;;;5006096;28;20424;-82
2021/12/08 04:10:17;;;;;;;2.97;1.60;;;3.00;98.00;;;;;;5007277;28;20018;-83
2021/12/08 04:12:48;;;;;;;3.60;2.00;;;3.00;98.00;;;;;;5017001;28;20040;-83
2021/12/08 04:15:15;;;;;;;2.65;1.55;;;3.00;97.80;;;;;;5012422;28;20034;-83
2021/12/08 04:17:50;;;;;;;5.15;2.03;;;3.00;97.90;;;;;;4999064;28;20454;-82
2021/12/08 04:20:29;;;;;;;4.18;2.15;;;3.00;98.00;;;;;;5017360;28;20446;-83
2021/12/08 04:22:57;;;;;;;3.88;1.90;;;2.90;97.50;;;;;;5015802;28;20105;-83
2021/12/08 04:25:33;;;;;;;3.20;1.90;;;2.80;97.40;;;;;;5016783;28;20049;-84
2021/12/08 04:28:05;;;;;;;3.63;2.15;;;2.80;97.30;;;;;;5017818;28;20120;-83
2021/12/08 04:30:43;;;;;;;3.25;1.85;;;2.80;97.30;;;;;;5003230;28;20030;-84
2021/12/08 04:33:09;;;;;;;4.57;2.10;;;2.80;97.10;;;;;;5009240;28;20025;-83
2021/12/08 04:35:37;;;;;;;3.80;2.05;;;2.70;97.10;;;;;;5017252;28;20018;-84
2021/12/08 04:38:08;;;;;;;5.22;2.38;;;2.70;96.90;;;;;;5016527;28;20026;-84
2021/12/08 04:46:03;;;;;;;2.78;1.65;;;2.70;97.10;;;;;;4998810;28;20039;-84
2021/12/08 04:51:35;;;;;;;3.55;2.20;;;2.70;96.90;;;;;;5014369;28;20472;-84
2021/12/08 05:02:45;;;;;;;4.22;2.30;;;2.60;96.70;;;;;;4998633;28;20061;-84
2021/12/08 05:05:47;;;;;;;4.78;2.40;;;2.50;96.60;;;;;;5005542;28;20034;-83
2021/12/08 05:08:16;;;;;;;4.35;2.47;;;2.50;96.80;;;;;;5000076;28;20018;-83
2021/12/08 05:10:43;;;;;;;5.50;3.10;;;2.50;97.00;;;;;;5020607;28;20018;-82
2021/12/08 05:13:12;;;;;;;3.90;2.20;;;2.40;96.50;;;;;;5019643;28;20024;-81
2021/12/08 05:15:43;;;;;;;3.83;2.10;;;2.50;96.20;;;;;;5009624;28;20030;-82
2021/12/08 05:18:16;;;;;;;4.35;2.30;;;2.50;96.10;;;;;;5015802;28;20038;-81
2021/12/08 05:21:04;;;;;;;4.35;2.60;;;2.50;96.20;;;;;;5009584;28;20108;-81
2021/12/08 05:23:40;;;;;;;21.20;10.57;;;2.40;96.30;;;;;;5013199;28;20057;-81
2021/12/08 05:26:19;;;;;;;4.00;2.20;;;2.40;96.20;;;;;;5007747;28;20021;-81
2021/12/08 05:28:47;;;;;;;3.42;1.80;;;2.50;96.40;;;;;;5015515;28;20077;-81
2021/12/08 05:31:18;;;;;;;3.72;2.15;;;2.50;96.50;;;;;;5013320;28;20109;-81
2021/12/08 05:33:46;;;;;;;5.53;3.20;;;2.50;96.60;;;;;;5008360;28;20022;-81
2021/12/08 05:36:14;;;;;;;3.95;2.22;;;2.50;96.50;;;;;;5018376;28;20484;-81
2021/12/08 05:38:41;;;;;;;3.67;2.00;;;2.50;96.60;;;;;;5014612;28;20032;-81
2021/12/08 05:41:33;;;;;;;3.67;1.83;;;2.60;96.40;;;;;;5020011;28;20092;-80
2021/12/08 05:43:59;;;;;;;5.05;2.90;;;2.50;96.40;;;;;;5011034;28;20339;-81
2021/12/08 05:46:28;;;;;;;3.70;1.88;;;2.60;96.40;;;;;;5000305;28;20415;-80
2021/12/08 05:48:55;;;;;;;3.25;1.80;;;2.60;96.30;;;;;;5012254;28;21546;-81
2021/12/08 05:51:31;;;;;;;3.83;2.10;;;2.60;96.10;;;;;;5013488;28;20022;-80
2021/12/08 05:54:03;;;;;;;3.58;1.67;;;2.50;96.10;;;;;;5009496;28;20021;-80
2021/12/08 05:56:31;;;;;;;3.42;1.90;;;2.50;96.20;;;;;;4998453;28;20481;-80
2021/12/08 05:59:00;;;;;;;3.67;1.90;;;2.50;96.00;;;;;;5012561;28;20212;-80
2021/12/08 06:01:44;;;;;;;3.92;1.90;;;2.40;95.80;;;;;;5012793;28;20076;-80
2021/12/08 06:04:11;;;;;;;3.45;1.90;;;2.40;95.50;;;;;;5005613;28;20048;-80
2021/12/08 06:06:38;;;;;;;3.35;1.90;;;2.40;95.30;;;;;;5015375;28;20053;-79
2021/12/08 06:09:08;;;;;;;3.05;1.73;;;2.50;95.20;;;;;;5015574;28;20073;-80
2021/12/08 06:11:35;;;;;;;2.65;1.50;;;2.50;95.30;;;;;;5009552;28;20319;-79
2021/12/08 06:14:02;;;;;;;3.45;1.60;;;2.50;95.30;;;;;;4995937;28;20019;-79
2021/12/08 06:16:30;;;;;;;3.15;1.48;;;2.50;95.40;;;;;;4996037;28;20027;-79
2021/12/08 06:18:56;;;;;;;2.60;1.40;;;2.50;95.00;;;;;;4996985;28;20423;-80
2021/12/08 06:21:26;;;;;;;3.72;1.60;;;2.60;95.20;;;;;;4997017;28;20079;-80
2021/12/08 06:23:54;;;;;;;4.93;2.33;;;2.50;95.30;;;;;;5005148;28;20049;-80
2021/12/08 06:26:22;;;;;;;7.15;3.65;;;2.50;95.40;;;;;;4996115;28;20030;-79
2021/12/08 06:28:48;;;;;;;7.72;3.78;;;2.40;95.20;;;;;;4996809;28;20125;-79
2021/12/08 06:31:16;;;;;;;7.63;4.13;;;2.40;95.10;;;;;;4995857;28;20026;-80
2021/12/08 06:33:43;;;;;;;4.60;2.60;;;2.40;95.00;;;;;;4999491;28;20319;-79
2021/12/08 06:36:16;;;;;;;7.85;3.67;;;2.40;94.20;;;;;;5016306;28;20109;-79
2021/12/08 06:38:43;;;;;;;9.18;6.00;;;2.40;94.70;;;;;;5009701;28;20034;-79
2021/12/08 06:41:34;;;;;;;8.68;5.20;;;2.30;95.00;;;;;;5005760;28;20045;-79
2021/12/08 06:44:12;;;;;;;5.80;3.28;;;2.20;94.60;;;;;;4996675;28;20030;-80
2021/12/08 06:46:39;;;;;;;4.80;3.03;;;2.20;94.10;;;;;;4999343;28;20359;-79
2021/12/08 06:49:08;;;;;;;7.30;3.75;;;2.30;93.40;;;;;;4996869;28;20026;-79
2021/12/08 06:51:43;;;;;;;6.88;3.55;;;2.30;93.60;;;;;;4995514;28;20030;-79
2021/12/08 06:54:41;;;;;;;15.35;9.18;;;2.30;93.70;;;;;;4995446;28;20427;-80
2021/12/08 06:57:14;;;;;;;10.65;7.95;;;2.30;94.20;;;;;;4998364;28;20046;-79
2021/12/08 06:59:54;;;;;;;6.78;4.60;;;2.20;93.90;;;;;;5016616;28;20434;-79
2021/12/08 07:02:47;;;;;;;6.72;4.20;;;2.20;93.70;;;;;;5017565;28;20332;-79
2021/12/08 07:05:25;;;;;;;5.22;3.40;;;2.20;93.80;;;;;;5017695;28;20033;-79
2021/12/08 07:07:55;;;;;;;5.88;3.83;;;2.20;93.80;;;;;;5014799;28;20053;-79
2021/12/08 07:10:27;;;;;;;5.03;3.65;;;2.20;93.00;;;;;;5015126;28;20072;-79
2021/12/08 07:12:57;;;;;;;7.07;4.22;;;2.20;93.40;;;;;;5015344;28;20108;-79
2021/12/08 07:15:35;;;;;;;5.90;4.03;;;2.20;93.70;;;;;;5015819;28;20022;-79
2021/12/08 07:18:12;;;;;;;8.65;5.57;;;2.20;93.40;;;;;;5015190;28;20112;-79
2021/12/08 07:20:47;;;;;;;7.22;4.60;;;2.20;93.60;;;;;;5015714;28;20034;-79
2021/12/08 07:23:15;;;;;;;;;;;2.20;93.40;;;;;;5014943;28;20058;-79
2021/12/08 07:25:43;;;;;;;5.47;3.70;;;2.10;93.40;;;;;;5014810;28;19913;-79
2021/12/08 07:28:10;;;;;;;9.10;5.15;;;2.20;93.00;;;;;;5015681;28;20374;-79
2021/12/08 07:30:43;;;;;;;6.78;4.53;;;2.20;92.80;;;;;;5015812;28;20364;-79
2021/12/08 07:33:09;;;;;;;7.22;4.75;;;2.20;93.40;;;;;;5015303;28;20109;-79
2021/12/08 07:35:42;;;;;;;6.25;4.18;;;2.20;93.70;;;;;;5015835;28;20445;-79
2021/12/08 07:38:11;;;;;;;8.43;5.07;;;2.10;93.70;;;;;;5013234;28;20036;-80
2021/12/08 07:40:44;;;;;;;8.63;5.88;;;2.10;93.30;;;;;;5015583;28;20022;-79
2021/12/08 07:43:16;;;;;;;7.90;5.10;;;2.00;93.30;;;;;;5015649;28;20029;-80
2021/12/08 07:45:47;;;;;;;10.95;6.65;;;2.00;93.00;;;;;;5016742;28;20060;-79
2021/12/08 07:48:20;;;;;;;24.73;16.00;;;2.00;92.90;;;;;;5013362;28;20053;-80
2021/12/08 07:50:55;;;;;;;33.08;19.20;;;1.90;92.60;;;;;;5030039;28;20028;-80
2021/12/08 07:53:24;;;;;;;42.08;23.95;;;1.90;92.40;;;;;;5037035;28;20053;-79
2021/12/08 07:55:56;;;;;;;40.28;23.20;;;2.00;92.40;;;;;;5039287;28;20035;-79
2021/12/08 07:58:22;;;;;;;22.33;13.73;;;1.90;92.60;;;;;;5024208;28;20128;-79
2021/12/08 08:01:03;;;;;;;5.85;4.05;;;2.00;92.10;;;;;;5017836;28;20029;-79
2021/12/08 08:03:32;;;;;;;8.05;5.97;;;2.00;91.40;;;;;;5013225;28;20374;-79
2021/12/08 08:06:03;;;;;;;7.70;5.95;;;2.10;92.10;;;;;;4999742;28;20034;-79
2021/12/08 08:08:31;;;;;;;13.77;12.38;;;2.20;92.10;;;;;;5010354;28;20026;-80
2021/12/08 08:11:11;;;;;;;7.28;5.78;;;2.20;92.40;;;;;;5019238;28;20104;-79
2021/12/08 08:13:37;;;;;;;6.93;4.47;;;2.30;92.80;;;;;;5017663;28;20033;-79
2021/12/08 08:16:09;;;;;;;5.47;3.72;;;2.30;93.40;;;;;;5019318;28;20030;-79
2021/12/08 08:18:39;;;;;;;6.97;5.32;;;2.30;93.50;;;;;;5004664;28;20030;-79
2021/12/08 08:21:13;;;;;;;5.90;4.32;;;2.20;94.30;;;;;;4998306;28;20030;-80
2021/12/08 08:23:39;;;;;;;8.57;5.90;;;2.20;94.30;;;;;;5009501;28;20041;-79
2021/12/08 08:26:08;;;;;;;8.82;6.00;;;2.30;94.30;;;;;;5018637;28;20084;-79
2021/12/08 08:28:36;;;;;;;5.60;3.65;;;2.30;94.90;;;;;;5017321;28;20042;-79
2021/12/08 08:31:11;;;;;;;7.15;5.25;;;2.30;95.60;;;;;;5018802;28;20101;-79
2021/12/08 08:33:39;;;;;;;8.85;5.45;;;2.30;95.90;;;;;;5017479;28;20036;-79
2021/12/08 08:36:14;;;;;;;7.47;4.63;;;2.40;95.70;;;;;;5018554;28;20057;-80
2021/12/08 08:38:45;;;;;;;6.97;4.55;;;2.40;96.00;;;;;;5015895;28;20083;-79
2021/12/08 08:41:19;;;;;;;6.75;4.68;;;2.40;96.30;;;;;;5018381;28;20026;-79
2021/12/08 08:43:47;;;;;;;8.48;5.60;;;2.40;96.30;;;;;;5012562;28;20026;-79
2021/12/08 08:46:23;;;;;;;25.10;12.30;;;2.40;96.20;;;;;;4998039;28;20331;-79
2021/12/08 08:48:53;;;;;;;9.60;5.95;;;2.40;96.50;;;;;;4998906;28;20027;-79
2021/12/08 08:51:30;;;;;;;6.47;4.60;;;2.40;96.20;;;;;;4998787;28;20153;-79
2021/12/08 08:54:00;;;;;;;7.05;4.85;;;2.40;96.40;;;;;;5017159;28;20056;-79
2021/12/08 08:56:35;;;;;;;5.70;4.00;;;2.40;97.00;;;;;;5017759;28;20018;-79
2021/12/08 08:59:06;;;;;;;5.85;3.50;;;2.40;96.50;;;;;;5018337;28;20029;-79
2021/12/08 09:01:39;;;;;;;5.15;3.50;;;2.50;97.50;;;;;;5017327;28;20026;-79
2021/12/08 09:04:30;;;;;;;5.60;3.70;;;2.50;97.70;;;;;;5017832;28;20354;-79
2021/12/08 09:07:02;;;;;;;5.30;3.30;;;2.50;97.90;;;;;;5012186;28;20101;-80
2021/12/08 09:09:35;;;;;;;5.20;3.20;;;2.50;97.60;;;;;;5017627;28;20014;-79
2021/12/08 09:12:28;;;;;;;6.18;3.97;;;2.60;98.00;;;;;;5017015;28;20352;-79
2021/12/08 09:14:58;;;;;;;5.25;2.90;;;2.60;97.90;;;;;;5016347;28;20386;-79
2021/12/08 09:17:34;;;;;;;5.82;3.35;;;2.70;98.00;;;;;;5017893;28;20041;-79
2021/12/08 09:20:29;;;;;;;4.32;2.80;;;2.60;98.00;;;;;;5018016;28;20415;-79
2021/12/08 09:23:15;;;;;;;3.75;2.33;;;2.70;98.00;;;;;;5015265;28;20057;-79
2021/12/08 09:25:50;;;;;;;5.25;3.33;;;2.70;98.00;;;;;;5016366;28;20443;-79
2021/12/08 09:28:30;;;;;;;4.38;2.53;;;2.60;98.00;;;;;;5016544;28;20133;-79
2021/12/08 09:31:07;;;;;;;4.78;2.72;;;2.60;98.00;;;;;;5016483;28;20363;-79
2021/12/08 09:33:39;;;;;;;4.47;2.60;;;2.60;98.00;;;;;;5017835;28;20084;-79
2021/12/08 09:36:11;;;;;;;5.57;3.40;;;2.60;98.00;;;;;;5017373;28;20026;-79
2021/12/08 09:38:45;;;;;;;5.68;3.63;;;2.60;98.00;;;;;;5015193;28;20037;-79
2021/12/08 09:41:25;;;;;;;6.22;4.55;;;2.60;97.60;;;;;;5017643;28;20026;-80
2021/12/08 09:43:59;;;;;;;7.05;4.20;;;2.60;97.60;;;;;;5016173;28;20431;-79
2021/12/08 09:46:36;;;;;;;5.03;3.08;;;2.60;97.00;;;;;;5016389;28;20308;-79
2021/12/08 09:49:05;;;;;;;6.25;4.25;;;2.60;96.50;;;;;;5016323;28;20029;-79
2021/12/08 09:51:34;;;;;;;8.02;5.57;;;2.60;96.40;;;;;;5013501;28;20018;-79
2021/12/08 09:54:00;;;;;;;6.43;4.60;;;2.70;96.00;;;;;;5005183;28;20081;-79
2021/12/08 09:56:27;;;;;;;7.72;4.70;;;2.70;95.90;;;;;;5005116;28;20366;-79
2021/12/08 09:58:55;;;;;;;6.03;4.10;;;2.60;96.00;;;;;;5017176;28;20418;-79
2021/12/08 10:01:22;;;;;;;5.88;3.58;;;2.60;95.80;;;;;;5015855;28;20030;-79
2021/12/08 10:03:51;;;;;;;5.40;3.60;;;2.60;95.70;;;;;;5017237;28;20018;-79
2021/12/08 10:06:18;;;;;;;5.38;3.20;;;2.60;95.60;;;;;;5015235;28;20033;-79
2021/12/08 10:08:46;;;;;;;4.75;3.17;;;2.70;95.30;;;;;;5014110;28;20022;-79
2021/12/08 10:11:13;;;;;;;6.00;4.13;;;2.70;94.90;;;;;;5015482;28;20407;-79
2021/12/08 10:13:40;;;;;;;6.90;5.13;;;2.80;95.10;;;;;;5016871;28;20022;-80
2021/12/08 10:16:08;;;;;;;5.35;3.45;;;2.70;95.30;;;;;;5015624;28;20037;-79
2021/12/08 10:18:34;;;;;;;9.13;5.35;;;2.70;95.10;;;;;;5008577;28;20427;-79
2021/12/08 10:21:00;;;;;;;5.70;3.55;;;2.80;95.00;;;;;;4998098;28;20030;-79
2021/12/08 10:23:34;;;;;;;8.13;4.50;;;2.80;95.10;;;;;;5014285;28;20029;-79
2021/12/08 10:26:10;;;;;;;18.13;13.63;;;2.80;95.20;;;;;;5015464;28;20022;-79
2021/12/08 10:28:42;;;;;;;12.60;8.60;;;2.80;95.60;;;;;;5016412;28;20033;-79
2021/12/08 10:31:16;;;;;;;18.20;13.15;;;2.80;95.60;;;;;;5015544;28;20092;-79
2021/12/08 10:34:04;;;;;;;17.02;11.80;;;2.70;95.20;;;;;;5015316;28;20029;-79
2021/12/08 10:36:46;;;;;;;15.88;11.35;;;2.70;94.90;;;;;;5016550;28;20042;-79
2021/12/08 10:39:26;;;;;;;22.75;16.33;;;2.70;94.80;;;;;;5014760;28;20029;-79
2021/12/08 10:41:55;;;;;;;21.27;15.57;;;2.70;94.10;;;;;;5016380;28;20045;-80
2021/12/08 10:44:25;;;;;;;23.92;17.08;;;2.60;94.40;;;;;;5016080;28;20034;-79
2021/12/08 10:46:58;;;;;;;21.52;15.88;;;2.60;94.00;;;;;;5016434;28;20021;-79
2021/12/08 10:54:50;;;;;;;16.95;10.70;;;2.80;93.50;;;;;;5016204;28;20323;-79
2021/12/08 10:57:37;;;;;;;10.90;8.57;;;2.90;93.30;;;;;;5016455;28;20029;-79
2021/12/08 11:00:07;;;;;;;8.38;6.43;;;2.90;93.70;;;;;;5016033;28;20026;-79
2021/12/08 11:02:39;;;;;;;8.65;5.95;;;2.90;94.10;;;;;;5009689;28;20034;-79
2021/12/08 11:05:27;;;;;;;12.32;10.35;;;2.90;94.60;;;;;;5011308;28;20395;-80
2021/12/08 11:08:04;;;;;;;8.40;5.97;;;2.90;94.70;;;;;;5014243;28;20104;-79
2021/12/08 11:10:33;;;;;;;12.05;7.90;;;2.80;95.20;;;;;;5014149;28;20441;-79
2021/12/08 11:13:00;;;;;;;13.95;8.93;;;2.90;94.70;;;;;;5015871;28;20315;-79
2021/12/08 11:15:29;;;;;;;9.98;7.47;;;2.90;94.70;;;;;;5014926;28;20041;-80
2021/12/08 11:18:10;;;;;;;10.20;7.32;;;3.00;95.00;;;;;;5012669;28;20030;-79
2021/12/08 11:20:59;;;;;;;10.18;7.05;;;2.90;95.50;;;;;;5007886;28;20069;-79
2021/12/08 11:23:44;;;;;;;11.10;7.80;;;2.90;95.60;;;;;;5004474;28;20029;-79
2021/12/08 11:26:30;;;;;;;11.70;7.95;;;3.00;95.10;;;;;;5018577;28;20097;-79
2021/12/08 11:29:00;;;;;;;10.43;7.43;;;3.00;95.10;;;;;;5019555;28;20120;-79
2021/12/08 11:31:42;;;;;;;11.88;8.23;;;3.10;95.60;;;;;;5013999;28;20128;-79
2021/12/08 11:34:17;;;;;;;11.77;8.23;;;3.10;95.80;;;;;;5013960;28;20137;-80
2021/12/08 11:36:45;;;;;;;11.93;8.43;;;3.20;96.10;;;;;;5009702;28;20072;-79
2021/12/08 11:39:17;;;;;;;12.38;9.23;;;3.10;96.50;;;;;;5017973;28;20017;-79
2021/12/08 11:41:44;;;;;;;14.35;10.30;;;3.10;96.60;;;;;;5000068;28;20040;-79
2021/12/08 11:44:15;;;;;;;14.98;10.75;;;3.10;96.40;;;;;;5024905;28;20037;-80
2021/12/08 11:46:54;;;;;;;14.57;9.43;;;3.10;96.40;;;;;;5018248;28;20378;-79
2021/12/08 11:49:22;;;;;;;15.00;11.00;;;3.10;96.70;;;;;;5018384;28;20049;-79
2021/12/08 11:52:09;;;;;;;12.77;8.88;;;3.10;96.70;;;;;;5018900;28;20370;-79
2021/12/08 11:55:00;;;;;;;19.25;12.02;;;3.10;96.40;;;;;;5017752;28;20079;-79
2021/12/08 11:57:39;;;;;;;11.30;7.90;;;3.00;96.40;;;;;;5018468;28;20028;-79
2021/12/08 12:00:28;;;;;;;12.05;7.57;;;3.10;96.20;;;;;;5015212;28;20038;-79
2021/12/08 12:03:01;;;;;;;13.13;8.38;;;3.10;96.10;;;;;;5019187;28;20022;-79
2021/12/08 12:05:33;;;;;;;11.00;6.85;;;3.20;96.20;;;;;;5017648;28;20124;-79
2021/12/08 12:07:59;;;;;;;21.50;12.70;;;3.10;96.30;;;;;;5016520;28;20030;-79
2021/12/08 12:10:31;;;;;;;23.98;16.38;;;3.20;95.60;;;;;;5017728;28;20033;-79
2021/12/08 12:12:58;;;;;;;23.55;14.60;;;3.40;95.90;;;;;;5017890;28;20030;-79
2021/12/08 12:15:25;;;;;;;15.70;10.32;;;3.40;96.80;;;;;;5016705;28;20477;-79
2021/12/08 12:17:51;;;;;;;13.90;9.55;;;3.40;97.30;;;;;;5018532;28;20415;-79
2021/12/08 12:20:39;;;;;;;15.07;10.32;;;3.30;97.30;;;;;;5017945;28;20030;-79
2021/12/08 12:23:05;;;;;;;17.50;10.65;;;3.20;97.30;;;;;;5014203;28;20117;-79
2021/12/08 12:25:45;;;;;;;18.10;10.52;;;3.10;96.90;;;;;;4999369;28;20121;-79
2021/12/08 12:28:14;;;;;;;15.05;10.38;;;3.10;96.60;;;;;;4998410;28;20053;-79
2021/12/08 12:31:17;;;;;;;13.23;10.27;;;3.20;96.50;;;;;;5018086;28;20407;-79
2021/12/08 12:33:46;;;;;;;16.65;10.65;;;3.10;96.30;;;;;;5016692;28;20033;-79
2021/12/08 12:36:33;;;;;;;15.82;10.20;;;3.20;96.20;;;;;;5019014;28;20021;-79
2021/12/08 12:39:14;;;;;;;27.45;18.83;;;3.30;96.00;;;;;;5017493;28;20099;-79
2021/12/08 12:41:40;;;;;;;37.58;21.73;;;3.20;96.20;;;;;;5018461;28;20022;-79
2021/12/08 12:44:22;;;;;;;46.08;26.63;;;3.20;96.10;;;;;;5017239;28;20057;-79
2021/12/08 12:47:12;;;;;;;49.25;26.80;;;3.10;96.00;;;;;;5017067;28;20364;-79
2021/12/08 12:49:59;;;;;;;52.53;29.05;;;3.10;95.80;;;;;;5016879;28;20026;-80
2021/12/08 12:52:37;;;;;;;49.22;27.55;;;3.00;95.40;;;;;;5014867;28;20053;-80
2021/12/08 12:55:09;;;;;;;36.00;21.05;;;3.00;95.20;;;;;;5017861;28;20065;-78
2021/12/08 12:58:07;;;;;;;56.03;32.40;;;3.00;94.60;;;;;;5014002;28;20049;-78
2021/12/08 13:00:43;;;;;;;21.42;14.93;;;3.00;95.20;;;;;;5004858;28;20026;-78
2021/12/08 13:03:37;;;;;;;18.75;12.18;;;3.00;94.50;;;;;;5018038;28;20033;-78
2021/12/08 13:06:04;;;;;;;20.67;14.23;;;3.00;94.60;;;;;;5018234;28;20022;-78
2021/12/08 13:08:43;;;;;;;22.88;16.70;;;3.00;94.90;;;;;;5016790;28;20024;-79
2021/12/08 13:11:41;;;;;;;21.00;15.23;;;3.00;94.60;;;;;;5016897;28;20028;-78
2021/12/08 13:14:23;;;;;;;18.90;13.48;;;3.10;93.90;;;;;;5018000;28;20026;-78
2021/12/08 13:17:17;;;;;;;19.13;13.60;;;3.20;94.30;;;;;;5017432;28;20114;-78
2021/12/08 13:19:46;;;;;;;18.15;13.95;;;3.20;95.00;;;;;;5020474;28;20026;-80
2021/12/08 13:22:51;;;;;;;20.65;14.57;;;3.00;95.20;;;;;;5034166;28;20053;-80
2021/12/08 13:25:32;;;;;;;19.27;14.38;;;2.90;94.80;;;;;;4999252;28;20081;-80
2021/12/08 13:28:31;;;;;;;16.45;12.25;;;2.90;94.60;;;;;;5017549;28;20053;-80
2021/12/08 13:31:26;;;;;;;23.13;13.13;;;2.90;94.30;;;;;;5017155;28;20094;-80
2021/12/08 13:33:51;;;;;;;21.27;14.65;;;2.90;94.90;;;;;;5017754;28;20014;-80
2021/12/08 13:36:20;;;;;;;36.38;22.35;;;2.90;94.80;;;;;;5016046;28;20038;-80
2021/12/08 13:38:53;;;;;;;28.42;19.80;;;2.90;94.50;;;;;;5015487;28;20442;-80
2021/12/08 13:41:20;;;;;;;21.73;15.70;;;2.90;94.50;;;;;;5012145;28;20026;-80
2021/12/08 13:43:49;;;;;;;24.65;15.77;;;2.90;94.20;;;;;;5035534;28;20033;-80
2021/12/08 13:46:37;;;;;;;18.50;12.95;;;2.90;94.20;;;;;;5031775;28;20411;-80
2021/12/08 13:49:44;;;;;;;25.77;17.40;;;2.80;94.20;;;;;;5017496;28;20033;-80
2021/12/08 13:52:09;;;;;;;19.63;13.27;;;2.90;93.90;;;;;;5003937;28;20077;-80
2021/12/08 13:54:40;;;;;;;18.80;12.93;;;2.90;93.80;;;;;;5015005;28;20057;-80
2021/12/08 13:57:27;;;;;;;19.50;13.20;;;2.90;93.80;;;;;;5017150;28;20034;-80
2021/12/08 14:00:00;;;;;;;16.15;11.35;;;2.90;93.80;;;;;;5017239;28;20053;-80
2021/12/08 14:02:30;;;;;;;12.57;8.43;;;3.00;93.20;;;;;;5015300;28;20108;-80